sensor_id;sensor_type;location;lat;lon;timestamp;temperature;humidity
2839;DHT22;1427;48.510;9.060;2024-01-25T00:01:09;9.40;99.90
2839;DHT22;1427;48.510;9.060;2024-01-25T00:03:39;9.30;99.90
2839;DHT22;1427;48.510;9.060;2024-01-25T00:06:07;9.30;99.90
2839;DHT22;1427;48.510;9.060;2024-01-25T00:08:35;9.20;99.90
2839;DHT22;1427;48.510;9.060;2024-01-25T00:11:04;9.20;99.90
2839;DHT22;1427;48.510;9.060;2024-01-25T00:13:32;9.20;99.90
2839;DHT22;1427;48.510;9.060;2024-01-25T00:16:00;9.30;99.90
2839;DHT22;1427;48.510;9.060;2024-01-25T00:18:28;9.20;99.90
2839;DHT22;1427;48.510;9.060;2024-01-25T00:20:58;9.20;99.90
2839;DHT22;1427;48.510;9.060;2024-01-25T00:23:26;9.20;99.90
2839;DHT22;1427;48.510;9.060;2024-01-25T00:25:54;9.10;99.90
2839;DHT22;1427;48.510;9.060;2024-01-25T00:28:25;9.10;99.90
2839;DHT22;1427;48.510;9.060;2024-01-25T00:30:53;9.10;99.90
2839;DHT22;1427;48.510;9.060;2024-01-25T00:33:21;9.10;99.90
2839;DHT22;1427;48.510;9.060;2024-01-25T00:35:50;9.10;99.90
2839;DHT22;1427;48.510;9.060;2024-01-25T00:38:20;9.10;99.90
2839;DHT22;1427;48.510;9.060;2024-01-25T00:40:49;9.10;99.90
2839;DHT22;1427;48.510;9.060;2024-01-25T00:43:17;9.10;99.90
2839;DHT22;1427;48.510;9.060;2024-01-25T00:45:46;9.10;99.90
2839;DHT22;1427;48.510;9.060;2024-01-25T00:48:14;9.10;99.90
2839;DHT22;1427;48.510;9.060;2024-01-25T00:50:43;9.10;99.90
2839;DHT22;1427;48.510;9.060;2024-01-25T00:53:12;9.10;99.90
2839;DHT22;1427;48.510;9.060;2024-01-25T00:55:42;9.00;99.90
2839;DHT22;1427;48.510;9.060;2024-01-25T00:58:10;9.00;99.90
2839;DHT22;1427;48.510;9.060;2024-01-25T01:00:39;9.00;99.90
2839;DHT22;1427;48.510;9.060;2024-01-25T01:03:08;9.00;99.90
2839;DHT22;1427;48.510;9.060;2024-01-25T01:05:38;9.10;99.90
2839;DHT22;1427;48.510;9.060;2024-01-25T01:08:07;9.10;99.90
2839;DHT22;1427;48.510;9.060;2024-01-25T01:10:35;9.10;99.90
2839;DHT22;1427;48.510;9.060;2024-01-25T01:13:05;9.10;99.90
2839;DHT22;1427;48.510;9.060;2024-01-25T01:15:33;9.10;99.90
2839;DHT22;1427;48.510;9.060;2024-01-25T01:18:01;9.10;99.90
2839;DHT22;1427;48.510;9.060;2024-01-25T01:20:32;9.10;99.90
2839;DHT22;1427;48.510;9.060;2024-01-25T01:23:00;9.20;99.90
2839;DHT22;1427;48.510;9.060;2024-01-25T01:25:28;9.20;99.90
2839;DHT22;1427;48.510;9.060;2024-01-25T01:27:56;9.30;99.90
2839;DHT22;1427;48.510;9.060;2024-01-25T01:30:25;9.30;99.90
2839;DHT22;1427;48.510;9.060;2024-01-25T01:32:53;9.30;99.90
2839;DHT22;1427;48.510;9.060;2024-01-25T01:35:22;9.30;99.90
2839;DHT22;1427;48.510;9.060;2024-01-25T01:37:50;9.40;99.90
2839;DHT22;1427;48.510;9.060;2024-01-25T01:40:18;9.40;99.90
2839;DHT22;1427;48.510;9.060;2024-01-25T01:42:46;9.40;99.90
2839;DHT22;1427;48.510;9.060;2024-01-25T01:45:14;9.40;99.90
2839;DHT22;1427;48.510;9.060;2024-01-25T01:47:44;9.40;99.90
2839;DHT22;1427;48.510;9.060;2024-01-25T01:50:13;9.60;99.90
2839;DHT22;1427;48.510;9.060;2024-01-25T01:52:42;9.40;99.90
2839;DHT22;1427;48.510;9.060;2024-01-25T01:55:11;9.40;99.90
2839;DHT22;1427;48.510;9.060;2024-01-25T01:57:39;9.40;99.90
2839;DHT22;1427;48.510;9.060;2024-01-25T02:00:09;9.40;99.90
2839;DHT22;1427;48.510;9.060;2024-01-25T02:02:37;9.40;99.90
2839;DHT22;1427;48.510;9.060;2024-01-25T02:05:09;9.40;99.90
2839;DHT22;1427;48.510;9.060;2024-01-25T02:07:37;9.40;99.90
2839;DHT22;1427;48.510;9.060;2024-01-25T02:10:08;9.30;99.90
2839;DHT22;1427;48.510;9.060;2024-01-25T02:12:37;9.30;99.90
2839;DHT22;1427;48.510;9.060;2024-01-25T02:15:06;9.30;99.90
2839;DHT22;1427;48.510;9.060;2024-01-25T02:17:35;9.30;99.90
2839;DHT22;1427;48.510;9.060;2024-01-25T02:20:04;9.40;99.90
2839;DHT22;1427;48.510;9.060;2024-01-25T02:22:34;9.40;99.90
2839;DHT22;1427;48.510;9.060;2024-01-25T02:25:02;9.30;99.90
2839;DHT22;1427;48.510;9.060;2024-01-25T02:27:30;9.20;99.90
2839;DHT22;1427;48.510;9.060;2024-01-25T02:29:58;9.20;99.90
2839;DHT22;1427;48.510;9.060;2024-01-25T02:32:26;9.20;99.90
2839;DHT22;1427;48.510;9.060;2024-01-25T02:34:54;9.10;99.90
2839;DHT22;1427;48.510;9.060;2024-01-25T02:37:23;9.20;99.90
2839;DHT22;1427;48.510;9.060;2024-01-25T02:39:53;9.20;99.90
2839;DHT22;1427;48.510;9.060;2024-01-25T02:42:21;9.20;99.90
2839;DHT22;1427;48.510;9.060;2024-01-25T02:44:49;9.20;99.90
2839;DHT22;1427;48.510;9.060;2024-01-25T02:47:17;9.20;99.90
2839;DHT22;1427;48.510;9.060;2024-01-25T02:49:46;9.20;99.90
2839;DHT22;1427;48.510;9.060;2024-01-25T02:52:14;9.20;99.90
2839;DHT22;1427;48.510;9.060;2024-01-25T02:54:42;9.20;99.90
2839;DHT22;1427;48.510;9.060;2024-01-25T02:57:12;9.10;99.90
2839;DHT22;1427;48.510;9.060;2024-01-25T02:59:40;9.20;99.90
2839;DHT22;1427;48.510;9.060;2024-01-25T03:02:08;9.00;99.90
2839;DHT22;1427;48.510;9.060;2024-01-25T03:04:36;9.10;99.90
2839;DHT22;1427;48.510;9.060;2024-01-25T03:07:04;9.00;99.90
2839;DHT22;1427;48.510;9.060;2024-01-25T03:09:33;9.00;99.90
2839;DHT22;1427;48.510;9.060;2024-01-25T03:12:01;9.00;99.90
2839;DHT22;1427;48.510;9.060;2024-01-25T03:14:30;9.00;99.90
2839;DHT22;1427;48.510;9.060;2024-01-25T03:16:58;9.00;99.90
2839;DHT22;1427;48.510;9.060;2024-01-25T03:19:27;9.00;99.90
2839;DHT22;1427;48.510;9.060;2024-01-25T03:21:56;9.00;99.90
2839;DHT22;1427;48.510;9.060;2024-01-25T03:24:25;8.90;99.90
2839;DHT22;1427;48.510;9.060;2024-01-25T03:26:53;9.00;99.90
2839;DHT22;1427;48.510;9.060;2024-01-25T03:29:21;9.10;99.90
2839;DHT22;1427;48.510;9.060;2024-01-25T03:31:50;8.90;99.90
2839;DHT22;1427;48.510;9.060;2024-01-25T03:34:18;9.00;99.90
2839;DHT22;1427;48.510;9.060;2024-01-25T03:36:47;9.00;99.90
2839;DHT22;1427;48.510;9.060;2024-01-25T03:39:16;8.90;99.90
2839;DHT22;1427;48.510;9.060;2024-01-25T03:41:45;8.90;99.90
2839;DHT22;1427;48.510;9.060;2024-01-25T03:44:13;8.80;99.90
2839;DHT22;1427;48.510;9.060;2024-01-25T03:46:41;8.80;99.90
2839;DHT22;1427;48.510;9.060;2024-01-25T03:49:10;8.80;99.90
2839;DHT22;1427;48.510;9.060;2024-01-25T03:51:39;8.80;99.90
2839;DHT22;1427;48.510;9.060;2024-01-25T03:54:07;8.80;99.90
2839;DHT22;1427;48.510;9.060;2024-01-25T03:56:35;8.80;99.90
2839;DHT22;1427;48.510;9.060;2024-01-25T03:59:03;8.70;99.90
2839;DHT22;1427;48.510;9.060;2024-01-25T04:01:31;8.70;99.90
2839;DHT22;1427;48.510;9.060;2024-01-25T04:03:59;8.50;99.90
2839;DHT22;1427;48.510;9.060;2024-01-25T04:06:29;8.50;99.90
2839;DHT22;1427;48.510;9.060;2024-01-25T04:08:57;8.40;99.90
2839;DHT22;1427;48.510;9.060;2024-01-25T04:11:25;8.30;99.90
2839;DHT22;1427;48.510;9.060;2024-01-25T04:13:54;8.40;99.90
2839;DHT22;1427;48.510;9.060;2024-01-25T04:16:22;8.40;99.90
2839;DHT22;1427;48.510;9.060;2024-01-25T04:18:51;8.50;99.90
2839;DHT22;1427;48.510;9.060;2024-01-25T04:21:19;8.50;99.90
2839;DHT22;1427;48.510;9.060;2024-01-25T04:23:48;8.50;99.90
2839;DHT22;1427;48.510;9.060;2024-01-25T04:26:16;8.50;99.90
2839;DHT22;1427;48.510;9.060;2024-01-25T04:28:44;8.50;99.90
2839;DHT22;1427;48.510;9.060;2024-01-25T04:31:12;8.50;99.90
2839;DHT22;1427;48.510;9.060;2024-01-25T04:33:41;8.60;99.90
2839;DHT22;1427;48.510;9.060;2024-01-25T04:36:14;8.50;99.90
2839;DHT22;1427;48.510;9.060;2024-01-25T04:38:42;8.60;99.90
2839;DHT22;1427;48.510;9.060;2024-01-25T04:41:12;8.60;99.90
2839;DHT22;1427;48.510;9.060;2024-01-25T04:43:40;8.50;99.90
2839;DHT22;1427;48.510;9.060;2024-01-25T04:46:09;8.60;99.90
2839;DHT22;1427;48.510;9.060;2024-01-25T04:48:37;8.60;99.90
2839;DHT22;1427;48.510;9.060;2024-01-25T04:51:06;9.50;99.90
2839;DHT22;1427;48.510;9.060;2024-01-25T04:53:35;8.50;99.90
2839;DHT22;1427;48.510;9.060;2024-01-25T04:56:04;8.50;99.90
2839;DHT22;1427;48.510;9.060;2024-01-25T04:58:36;8.60;99.90
2839;DHT22;1427;48.510;9.060;2024-01-25T05:01:05;8.50;99.90
2839;DHT22;1427;48.510;9.060;2024-01-25T05:03:34;8.50;99.90
2839;DHT22;1427;48.510;9.060;2024-01-25T05:06:03;8.50;99.90
2839;DHT22;1427;48.510;9.060;2024-01-25T05:08:31;8.40;99.90
2839;DHT22;1427;48.510;9.060;2024-01-25T05:10:59;8.40;99.90
2839;DHT22;1427;48.510;9.060;2024-01-25T05:13:27;8.40;99.90
2839;DHT22;1427;48.510;9.060;2024-01-25T05:15:57;8.30;99.90
2839;DHT22;1427;48.510;9.060;2024-01-25T05:18:25;8.30;99.90
2839;DHT22;1427;48.510;9.060;2024-01-25T05:20:53;8.30;99.90
2839;DHT22;1427;48.510;9.060;2024-01-25T05:23:23;8.40;99.90
2839;DHT22;1427;48.510;9.060;2024-01-25T05:25:51;8.30;99.90
2839;DHT22;1427;48.510;9.060;2024-01-25T05:28:21;8.40;99.90
2839;DHT22;1427;48.510;9.060;2024-01-25T05:30:51;8.40;99.90
2839;DHT22;1427;48.510;9.060;2024-01-25T05:33:20;8.40;99.90
2839;DHT22;1427;48.510;9.060;2024-01-25T05:35:49;8.40;99.90
2839;DHT22;1427;48.510;9.060;2024-01-25T05:38:17;8.40;99.90
2839;DHT22;1427;48.510;9.060;2024-01-25T05:40:45;8.40;99.90
2839;DHT22;1427;48.510;9.060;2024-01-25T05:43:13;8.40;99.90
2839;DHT22;1427;48.510;9.060;2024-01-25T05:45:41;8.40;99.90
2839;DHT22;1427;48.510;9.060;2024-01-25T05:48:10;8.40;99.90
2839;DHT22;1427;48.510;9.060;2024-01-25T05:50:39;8.40;99.90
2839;DHT22;1427;48.510;9.060;2024-01-25T05:53:07;8.40;99.90
2839;DHT22;1427;48.510;9.060;2024-01-25T05:55:35;8.40;99.90
2839;DHT22;1427;48.510;9.060;2024-01-25T05:58:04;8.30;99.90
2839;DHT22;1427;48.510;9.060;2024-01-25T06:00:32;8.40;99.90
2839;DHT22;1427;48.510;9.060;2024-01-25T06:03:00;8.30;99.90
2839;DHT22;1427;48.510;9.060;2024-01-25T06:05:28;8.30;99.90
2839;DHT22;1427;48.510;9.060;2024-01-25T06:07:58;8.30;99.90
2839;DHT22;1427;48.510;9.060;2024-01-25T06:10:27;8.30;99.90
2839;DHT22;1427;48.510;9.060;2024-01-25T06:12:55;8.30;99.90
2839;DHT22;1427;48.510;9.060;2024-01-25T06:15:23;8.20;99.90
2839;DHT22;1427;48.510;9.060;2024-01-25T06:17:51;8.20;99.90
2839;DHT22;1427;48.510;9.060;2024-01-25T06:20:19;8.20;99.90
2839;DHT22;1427;48.510;9.060;2024-01-25T06:22:47;8.10;99.90
2839;DHT22;1427;48.510;9.060;2024-01-25T06:25:17;8.10;99.90
2839;DHT22;1427;48.510;9.060;2024-01-25T06:27:45;8.00;99.90
2839;DHT22;1427;48.510;9.060;2024-01-25T06:30:16;7.90;99.90
2839;DHT22;1427;48.510;9.060;2024-01-25T06:32:44;7.90;99.90
2839;DHT22;1427;48.510;9.060;2024-01-25T06:35:12;8.00;99.90
2839;DHT22;1427;48.510;9.060;2024-01-25T06:37:40;8.00;99.90
2839;DHT22;1427;48.510;9.060;2024-01-25T06:40:08;8.10;99.90
2839;DHT22;1427;48.510;9.060;2024-01-25T06:42:38;8.00;99.90
2839;DHT22;1427;48.510;9.060;2024-01-25T06:45:07;8.00;99.90
2839;DHT22;1427;48.510;9.060;2024-01-25T06:47:35;8.00;99.90
2839;DHT22;1427;48.510;9.060;2024-01-25T06:50:03;8.10;99.90
2839;DHT22;1427;48.510;9.060;2024-01-25T06:52:33;8.10;99.90
2839;DHT22;1427;48.510;9.060;2024-01-25T06:55:01;7.90;99.90
2839;DHT22;1427;48.510;9.060;2024-01-25T06:57:29;7.90;99.90
2839;DHT22;1427;48.510;9.060;2024-01-25T06:59:59;8.10;99.90
2839;DHT22;1427;48.510;9.060;2024-01-25T07:02:28;7.90;99.90
2839;DHT22;1427;48.510;9.060;2024-01-25T07:04:58;8.00;99.90
2839;DHT22;1427;48.510;9.060;2024-01-25T07:07:28;8.00;99.90
2839;DHT22;1427;48.510;9.060;2024-01-25T07:09:59;8.00;99.90
2839;DHT22;1427;48.510;9.060;2024-01-25T07:12:29;8.20;99.90
2839;DHT22;1427;48.510;9.060;2024-01-25T07:14:58;8.00;99.90
2839;DHT22;1427;48.510;9.060;2024-01-25T07:17:27;8.00;99.90
2839;DHT22;1427;48.510;9.060;2024-01-25T07:19:55;8.00;99.90
2839;DHT22;1427;48.510;9.060;2024-01-25T07:22:23;8.00;99.90
2839;DHT22;1427;48.510;9.060;2024-01-25T07:24:51;8.00;99.90
2839;DHT22;1427;48.510;9.060;2024-01-25T07:27:19;7.90;99.90
2839;DHT22;1427;48.510;9.060;2024-01-25T07:29:47;8.00;99.90
2839;DHT22;1427;48.510;9.060;2024-01-25T07:32:18;8.00;99.90
2839;DHT22;1427;48.510;9.060;2024-01-25T07:34:46;7.50;99.90
2839;DHT22;1427;48.510;9.060;2024-01-25T07:37:14;7.50;99.90
2839;DHT22;1427;48.510;9.060;2024-01-25T07:39:42;7.40;99.90
2839;DHT22;1427;48.510;9.060;2024-01-25T07:42:11;7.40;99.90
2839;DHT22;1427;48.510;9.060;2024-01-25T07:44:39;7.40;99.90
2839;DHT22;1427;48.510;9.060;2024-01-25T07:47:07;7.40;99.90
2839;DHT22;1427;48.510;9.060;2024-01-25T07:49:36;7.40;99.90
2839;DHT22;1427;48.510;9.060;2024-01-25T07:52:05;7.40;99.90
2839;DHT22;1427;48.510;9.060;2024-01-25T07:54:33;7.60;99.90
2839;DHT22;1427;48.510;9.060;2024-01-25T07:57:01;7.60;99.90
2839;DHT22;1427;48.510;9.060;2024-01-25T07:59:29;7.70;99.90
2839;DHT22;1427;48.510;9.060;2024-01-25T08:02:00;7.70;99.90
2839;DHT22;1427;48.510;9.060;2024-01-25T08:04:28;7.80;99.90
2839;DHT22;1427;48.510;9.060;2024-01-25T08:06:59;7.80;99.90
2839;DHT22;1427;48.510;9.060;2024-01-25T08:09:27;8.10;99.90
2839;DHT22;1427;48.510;9.060;2024-01-25T08:11:58;8.20;99.90
2839;DHT22;1427;48.510;9.060;2024-01-25T08:14:26;8.40;99.90
2839;DHT22;1427;48.510;9.060;2024-01-25T08:16:55;8.80;99.90
2839;DHT22;1427;48.510;9.060;2024-01-25T08:19:26;9.20;99.90
2839;DHT22;1427;48.510;9.060;2024-01-25T08:21:55;9.50;99.90
2839;DHT22;1427;48.510;9.060;2024-01-25T08:24:25;9.60;99.90
2839;DHT22;1427;48.510;9.060;2024-01-25T08:26:53;9.80;99.90
2839;DHT22;1427;48.510;9.060;2024-01-25T08:29:24;10.20;99.90
2839;DHT22;1427;48.510;9.060;2024-01-25T08:31:54;9.90;99.90
2839;DHT22;1427;48.510;9.060;2024-01-25T08:34:22;10.00;99.90
2839;DHT22;1427;48.510;9.060;2024-01-25T08:36:50;10.10;99.90
2839;DHT22;1427;48.510;9.060;2024-01-25T08:39:18;10.40;99.90
2839;DHT22;1427;48.510;9.060;2024-01-25T08:41:48;9.60;99.90
2839;DHT22;1427;48.510;9.060;2024-01-25T08:44:17;9.40;99.90
2839;DHT22;1427;48.510;9.060;2024-01-25T08:46:49;9.20;99.90
2839;DHT22;1427;48.510;9.060;2024-01-25T08:49:17;9.20;99.90
2839;DHT22;1427;48.510;9.060;2024-01-25T08:51:45;9.70;99.90
2839;DHT22;1427;48.510;9.060;2024-01-25T08:54:13;10.30;99.90
2839;DHT22;1427;48.510;9.060;2024-01-25T08:56:42;10.60;99.90
2839;DHT22;1427;48.510;9.060;2024-01-25T08:59:11;11.20;99.90
2839;DHT22;1427;48.510;9.060;2024-01-25T09:01:42;11.40;99.90
2839;DHT22;1427;48.510;9.060;2024-01-25T09:04:11;11.70;99.90
2839;DHT22;1427;48.510;9.060;2024-01-25T09:06:41;11.90;99.90
2839;DHT22;1427;48.510;9.060;2024-01-25T09:09:09;12.10;99.90
2839;DHT22;1427;48.510;9.060;2024-01-25T09:11:40;12.20;99.90
2839;DHT22;1427;48.510;9.060;2024-01-25T09:14:08;12.40;99.90
2839;DHT22;1427;48.510;9.060;2024-01-25T09:16:40;12.40;99.90
2839;DHT22;1427;48.510;9.060;2024-01-25T09:19:10;12.50;99.90
2839;DHT22;1427;48.510;9.060;2024-01-25T09:21:42;12.70;99.90
2839;DHT22;1427;48.510;9.060;2024-01-25T09:24:10;12.80;99.90
2839;DHT22;1427;48.510;9.060;2024-01-25T09:26:38;13.00;99.90
2839;DHT22;1427;48.510;9.060;2024-01-25T09:29:06;13.00;99.90
2839;DHT22;1427;48.510;9.060;2024-01-25T09:31:35;12.80;99.90
2839;DHT22;1427;48.510;9.060;2024-01-25T09:34:04;13.10;99.90
2839;DHT22;1427;48.510;9.060;2024-01-25T09:36:34;13.30;99.90
2839;DHT22;1427;48.510;9.060;2024-01-25T09:39:02;13.50;99.90
2839;DHT22;1427;48.510;9.060;2024-01-25T09:41:31;13.70;99.90
2839;DHT22;1427;48.510;9.060;2024-01-25T09:43:59;13.90;99.90
2839;DHT22;1427;48.510;9.060;2024-01-25T09:46:27;13.70;99.90
2839;DHT22;1427;48.510;9.060;2024-01-25T09:48:55;13.40;99.90
2839;DHT22;1427;48.510;9.060;2024-01-25T09:51:25;13.20;99.90
2839;DHT22;1427;48.510;9.060;2024-01-25T09:53:54;13.20;99.90
2839;DHT22;1427;48.510;9.060;2024-01-25T09:56:23;13.40;99.90
2839;DHT22;1427;48.510;9.060;2024-01-25T09:58:51;13.40;99.90
2839;DHT22;1427;48.510;9.060;2024-01-25T10:01:20;13.90;99.90
2839;DHT22;1427;48.510;9.060;2024-01-25T10:03:48;14.40;99.90
2839;DHT22;1427;48.510;9.060;2024-01-25T10:06:17;13.90;99.90
2839;DHT22;1427;48.510;9.060;2024-01-25T10:08:47;13.00;99.90
2839;DHT22;1427;48.510;9.060;2024-01-25T10:11:15;13.30;99.90
2839;DHT22;1427;48.510;9.060;2024-01-25T10:13:44;12.80;99.90
2839;DHT22;1427;48.510;9.060;2024-01-25T10:16:14;12.80;99.90
2839;DHT22;1427;48.510;9.060;2024-01-25T10:18:44;12.40;99.90
2839;DHT22;1427;48.510;9.060;2024-01-25T10:21:15;12.60;99.90
2839;DHT22;1427;48.510;9.060;2024-01-25T10:23:44;12.80;99.90
2839;DHT22;1427;48.510;9.060;2024-01-25T10:26:15;12.70;99.90
2839;DHT22;1427;48.510;9.060;2024-01-25T10:28:50;12.60;99.90
2839;DHT22;1427;48.510;9.060;2024-01-25T10:31:24;12.70;99.90
2839;DHT22;1427;48.510;9.060;2024-01-25T10:33:53;12.90;99.90
2839;DHT22;1427;48.510;9.060;2024-01-25T10:36:22;13.50;99.90
2839;DHT22;1427;48.510;9.060;2024-01-25T10:38:50;13.60;99.90
2839;DHT22;1427;48.510;9.060;2024-01-25T10:41:23;13.60;99.90
2839;DHT22;1427;48.510;9.060;2024-01-25T10:43:54;13.60;99.90
2839;DHT22;1427;48.510;9.060;2024-01-25T10:46:23;13.50;99.90
2839;DHT22;1427;48.510;9.060;2024-01-25T10:48:52;13.30;99.90
2839;DHT22;1427;48.510;9.060;2024-01-25T10:51:21;12.80;99.90
2839;DHT22;1427;48.510;9.060;2024-01-25T10:53:50;12.30;99.90
2839;DHT22;1427;48.510;9.060;2024-01-25T10:56:21;12.40;99.90
2839;DHT22;1427;48.510;9.060;2024-01-25T10:58:49;12.30;99.90
2839;DHT22;1427;48.510;9.060;2024-01-25T11:01:17;12.00;99.90
2839;DHT22;1427;48.510;9.060;2024-01-25T11:03:46;12.10;99.90
2839;DHT22;1427;48.510;9.060;2024-01-25T11:06:17;12.60;99.90
2839;DHT22;1427;48.510;9.060;2024-01-25T11:08:48;12.50;99.90
2839;DHT22;1427;48.510;9.060;2024-01-25T11:11:19;12.80;99.90
2839;DHT22;1427;48.510;9.060;2024-01-25T11:13:50;16.60;99.90
2839;DHT22;1427;48.510;9.060;2024-01-25T11:16:24;21.40;94.10
2839;DHT22;1427;48.510;9.060;2024-01-25T11:18:57;24.40;86.60
2839;DHT22;1427;48.510;9.060;2024-01-25T11:21:27;26.10;76.60
2839;DHT22;1427;48.510;9.060;2024-01-25T11:24:02;27.60;71.60
2839;DHT22;1427;48.510;9.060;2024-01-25T11:26:33;29.00;63.70
2839;DHT22;1427;48.510;9.060;2024-01-25T11:29:02;28.70;60.80
2839;DHT22;1427;48.510;9.060;2024-01-25T11:31:30;28.80;58.80
2839;DHT22;1427;48.510;9.060;2024-01-25T11:33:58;29.10;58.00
2839;DHT22;1427;48.510;9.060;2024-01-25T11:36:28;28.70;57.50
2839;DHT22;1427;48.510;9.060;2024-01-25T11:38:56;27.10;59.10
2839;DHT22;1427;48.510;9.060;2024-01-25T11:41:25;24.10;63.60
2839;DHT22;1427;48.510;9.060;2024-01-25T11:43:55;24.70;63.80
2839;DHT22;1427;48.510;9.060;2024-01-25T11:46:23;26.00;62.20
2839;DHT22;1427;48.510;9.060;2024-01-25T11:48:53;25.50;61.60
2839;DHT22;1427;48.510;9.060;2024-01-25T11:51:21;26.20;59.80
2839;DHT22;1427;48.510;9.060;2024-01-25T11:53:49;26.50;57.90
2839;DHT22;1427;48.510;9.060;2024-01-25T11:56:20;26.70;56.80
2839;DHT22;1427;48.510;9.060;2024-01-25T11:58:49;26.50;58.40
2839;DHT22;1427;48.510;9.060;2024-01-25T12:01:19;26.60;56.90
2839;DHT22;1427;48.510;9.060;2024-01-25T12:03:48;26.90;57.30
2839;DHT22;1427;48.510;9.060;2024-01-25T12:06:17;25.90;59.00
2839;DHT22;1427;48.510;9.060;2024-01-25T12:08:45;24.40;60.80
2839;DHT22;1427;48.510;9.060;2024-01-25T12:11:15;22.70;64.80
2839;DHT22;1427;48.510;9.060;2024-01-25T12:13:44;24.40;63.20
2839;DHT22;1427;48.510;9.060;2024-01-25T12:16:15;25.30;59.30
2839;DHT22;1427;48.510;9.060;2024-01-25T12:18:45;25.00;60.00
2839;DHT22;1427;48.510;9.060;2024-01-25T12:21:13;23.90;62.90
2839;DHT22;1427;48.510;9.060;2024-01-25T12:23:42;25.40;60.90
2839;DHT22;1427;48.510;9.060;2024-01-25T12:26:11;25.80;60.00
2839;DHT22;1427;48.510;9.060;2024-01-25T12:28:39;25.80;59.40
2839;DHT22;1427;48.510;9.060;2024-01-25T12:31:08;23.30;61.90
2839;DHT22;1427;48.510;9.060;2024-01-25T12:33:37;23.80;62.90
2839;DHT22;1427;48.510;9.060;2024-01-25T12:36:07;25.50;60.20
2839;DHT22;1427;48.510;9.060;2024-01-25T12:38:35;26.20;58.70
2839;DHT22;1427;48.510;9.060;2024-01-25T12:41:04;27.50;57.90
2839;DHT22;1427;48.510;9.060;2024-01-25T12:43:32;28.40;56.00
2839;DHT22;1427;48.510;9.060;2024-01-25T12:46:00;25.00;59.20
2839;DHT22;1427;48.510;9.060;2024-01-25T12:48:44;24.50;60.80
2839;DHT22;1427;48.510;9.060;2024-01-25T12:51:15;25.80;59.60
2839;DHT22;1427;48.510;9.060;2024-01-25T12:53:44;26.50;58.10
2839;DHT22;1427;48.510;9.060;2024-01-25T12:56:12;26.10;59.60
2839;DHT22;1427;48.510;9.060;2024-01-25T12:58:41;24.70;60.40
2839;DHT22;1427;48.510;9.060;2024-01-25T13:01:09;21.60;65.80
2839;DHT22;1427;48.510;9.060;2024-01-25T13:03:37;19.40;69.50
2839;DHT22;1427;48.510;9.060;2024-01-25T13:06:06;17.90;72.70
2839;DHT22;1427;48.510;9.060;2024-01-25T13:08:36;17.50;74.40
2839;DHT22;1427;48.510;9.060;2024-01-25T13:11:04;17.10;76.50
2839;DHT22;1427;48.510;9.060;2024-01-25T13:13:32;18.20;75.80
2839;DHT22;1427;48.510;9.060;2024-01-25T13:16:00;18.90;72.50
2839;DHT22;1427;48.510;9.060;2024-01-25T13:18:28;18.40;73.50
2839;DHT22;1427;48.510;9.060;2024-01-25T13:20:56;17.50;75.40
2839;DHT22;1427;48.510;9.060;2024-01-25T13:23:24;17.40;75.60
2839;DHT22;1427;48.510;9.060;2024-01-25T13:25:54;17.20;77.00
2839;DHT22;1427;48.510;9.060;2024-01-25T13:28:22;16.20;79.10
2839;DHT22;1427;48.510;9.060;2024-01-25T13:30:50;15.50;81.30
2839;DHT22;1427;48.510;9.060;2024-01-25T13:33:20;15.00;83.10
2839;DHT22;1427;48.510;9.060;2024-01-25T13:35:49;14.50;84.40
2839;DHT22;1427;48.510;9.060;2024-01-25T13:38:17;13.80;87.50
2839;DHT22;1427;48.510;9.060;2024-01-25T13:40:45;13.30;89.70
2839;DHT22;1427;48.510;9.060;2024-01-25T13:43:14;12.60;91.50
2839;DHT22;1427;48.510;9.060;2024-01-25T13:45:43;12.50;92.60
2839;DHT22;1427;48.510;9.060;2024-01-25T13:48:11;12.40;93.40
2839;DHT22;1427;48.510;9.060;2024-01-25T13:50:39;12.30;94.60
2839;DHT22;1427;48.510;9.060;2024-01-25T13:53:07;12.40;95.10
2839;DHT22;1427;48.510;9.060;2024-01-25T13:55:35;12.20;95.80
2839;DHT22;1427;48.510;9.060;2024-01-25T13:58:03;11.90;96.90
2839;DHT22;1427;48.510;9.060;2024-01-25T14:00:32;11.80;97.80
2839;DHT22;1427;48.510;9.060;2024-01-25T14:03:00;11.70;98.60
2839;DHT22;1427;48.510;9.060;2024-01-25T14:05:29;11.70;99.10
2839;DHT22;1427;48.510;9.060;2024-01-25T14:07:58;11.80;99.70
2839;DHT22;1427;48.510;9.060;2024-01-25T14:10:27;11.90;99.90
2839;DHT22;1427;48.510;9.060;2024-01-25T14:12:56;11.90;99.80
2839;DHT22;1427;48.510;9.060;2024-01-25T14:15:25;11.70;99.90
2839;DHT22;1427;48.510;9.060;2024-01-25T14:17:54;11.50;99.90
2839;DHT22;1427;48.510;9.060;2024-01-25T14:20:22;11.40;99.90
2839;DHT22;1427;48.510;9.060;2024-01-25T14:22:50;11.40;99.90
2839;DHT22;1427;48.510;9.060;2024-01-25T14:25:18;11.20;99.90
2839;DHT22;1427;48.510;9.060;2024-01-25T14:27:46;11.20;99.90
2839;DHT22;1427;48.510;9.060;2024-01-25T14:30:17;11.10;99.90
2839;DHT22;1427;48.510;9.060;2024-01-25T14:32:45;11.10;99.90
2839;DHT22;1427;48.510;9.060;2024-01-25T14:35:15;11.00;99.90
2839;DHT22;1427;48.510;9.060;2024-01-25T14:37:43;11.10;99.90
2839;DHT22;1427;48.510;9.060;2024-01-25T14:40:12;11.10;99.90
2839;DHT22;1427;48.510;9.060;2024-01-25T14:43:00;11.10;99.90
2839;DHT22;1427;48.510;9.060;2024-01-25T14:45:28;11.00;99.90
2839;DHT22;1427;48.510;9.060;2024-01-25T14:47:57;11.10;99.90
2839;DHT22;1427;48.510;9.060;2024-01-25T14:50:26;11.10;99.90
2839;DHT22;1427;48.510;9.060;2024-01-25T14:52:54;11.00;99.90
2839;DHT22;1427;48.510;9.060;2024-01-25T14:55:22;11.20;99.90
2839;DHT22;1427;48.510;9.060;2024-01-25T14:57:51;11.10;99.90
2839;DHT22;1427;48.510;9.060;2024-01-25T15:00:19;11.30;99.90
2839;DHT22;1427;48.510;9.060;2024-01-25T15:02:47;11.20;99.90
2839;DHT22;1427;48.510;9.060;2024-01-25T15:05:16;11.10;99.90
2839;DHT22;1427;48.510;9.060;2024-01-25T15:07:45;11.20;99.90
2839;DHT22;1427;48.510;9.060;2024-01-25T15:10:13;11.20;99.90
2839;DHT22;1427;48.510;9.060;2024-01-25T15:12:41;11.10;99.90
2839;DHT22;1427;48.510;9.060;2024-01-25T15:15:10;11.10;99.90
2839;DHT22;1427;48.510;9.060;2024-01-25T15:17:38;11.00;99.90
2839;DHT22;1427;48.510;9.060;2024-01-25T15:20:07;11.00;99.90
2839;DHT22;1427;48.510;9.060;2024-01-25T15:22:36;11.00;99.90
2839;DHT22;1427;48.510;9.060;2024-01-25T15:25:07;11.00;99.90
2839;DHT22;1427;48.510;9.060;2024-01-25T15:27:35;11.00;99.90
2839;DHT22;1427;48.510;9.060;2024-01-25T15:30:04;11.00;99.90
2839;DHT22;1427;48.510;9.060;2024-01-25T15:32:35;10.90;99.90
2839;DHT22;1427;48.510;9.060;2024-01-25T15:35:03;10.80;99.90
2839;DHT22;1427;48.510;9.060;2024-01-25T15:37:32;10.80;99.90
2839;DHT22;1427;48.510;9.060;2024-01-25T15:40:00;10.70;99.90
2839;DHT22;1427;48.510;9.060;2024-01-25T15:42:36;10.60;99.90
2839;DHT22;1427;48.510;9.060;2024-01-25T15:45:05;10.60;99.90
2839;DHT22;1427;48.510;9.060;2024-01-25T15:47:33;10.60;99.90
2839;DHT22;1427;48.510;9.060;2024-01-25T15:50:01;10.50;99.90
2839;DHT22;1427;48.510;9.060;2024-01-25T15:52:31;10.50;99.90
2839;DHT22;1427;48.510;9.060;2024-01-25T15:55:00;10.40;99.90
2839;DHT22;1427;48.510;9.060;2024-01-25T15:57:28;10.40;99.90
2839;DHT22;1427;48.510;9.060;2024-01-25T16:00:00;10.30;99.90
2839;DHT22;1427;48.510;9.060;2024-01-25T16:02:28;10.40;99.90
2839;DHT22;1427;48.510;9.060;2024-01-25T16:04:56;10.40;99.90
2839;DHT22;1427;48.510;9.060;2024-01-25T16:07:24;10.30;99.90
2839;DHT22;1427;48.510;9.060;2024-01-25T16:09:52;10.20;99.90
2839;DHT22;1427;48.510;9.060;2024-01-25T16:12:20;10.10;99.90
2839;DHT22;1427;48.510;9.060;2024-01-25T16:14:50;10.00;99.90
2839;DHT22;1427;48.510;9.060;2024-01-25T16:17:22;10.00;99.90
2839;DHT22;1427;48.510;9.060;2024-01-25T16:19:50;10.00;99.90